Time;durP1;ratioP1;P1;durP2;ratioP2;P2;SDS_P1;SDS_P2;PMS_P1;PMS_P2;Temp;Humidity;BMP_temperature;BMP_pressure;BME280_temperature;BME280_humidity;BME280_pressure;Samples;Min_cycle;Max_cycle;Signal;HPM_P1;HPM_P2
2021/11/30 00:00:50;;;;;;;9.50;9.00;;;4.20;73.00;;;;;;4995979;28;20414;-88
2021/11/30 00:03:16;;;;;;;10.00;9.40;;;4.20;73.10;;;;;;5029940;28;20042;-88
2021/11/30 00:05:45;;;;;;;9.37;8.63;;;4.20;73.20;;;;;;5013717;28;20037;-88
2021/11/30 00:08:11;;;;;;;9.43;8.83;;;4.20;73.20;;;;;;5012902;28;20041;-88
2021/11/30 00:10:46;;;;;;;7.90;7.50;;;4.20;73.20;;;;;;5000345;28;22451;-87
2021/11/30 00:13:19;;;;;;;8.63;8.13;;;4.20;73.20;;;;;;5019398;28;20033;-88
2021/11/30 00:15:45;;;;;;;9.87;9.10;;;4.20;73.20;;;;;;5034693;28;20036;-88
2021/11/30 00:18:12;;;;;;;8.90;8.40;;;4.20;73.20;;;;;;5032576;28;20504;-88
2021/11/30 00:20:38;;;;;;;8.60;8.13;;;4.20;73.20;;;;;;5008594;28;20045;-88
2021/11/30 00:23:05;;;;;;;9.27;8.80;;;4.20;73.20;;;;;;5034429;28;20049;-88
2021/11/30 00:25:31;;;;;;;8.77;8.27;;;4.20;73.30;;;;;;5000374;28;20037;-87
2021/11/30 00:27:57;;;;;;;9.73;8.87;;;4.20;73.30;;;;;;5000840;28;20048;-88
2021/11/30 00:30:23;;;;;;;9.27;8.67;;;4.20;73.30;;;;;;5034043;28;20084;-88
2021/11/30 00:32:50;;;;;;;9.60;8.87;;;4.20;73.30;;;;;;5034825;28;20037;-88
2021/11/30 00:35:16;;;;;;;9.53;8.87;;;4.20;73.30;;;;;;5017084;28;20485;-88
2021/11/30 00:37:42;;;;;;;9.03;8.47;;;4.10;73.30;;;;;;5034336;28;20045;-88
2021/11/30 00:40:09;;;;;;;9.80;9.30;;;4.20;73.30;;;;;;5035106;28;20048;-88
2021/11/30 00:42:36;;;;;;;9.37;8.87;;;4.20;73.30;;;;;;5033965;28;20068;-88
2021/11/30 00:45:05;;;;;;;10.27;9.67;;;4.20;73.30;;;;;;5034168;28;20359;-86
2021/11/30 00:47:31;;;;;;;9.53;8.93;;;4.20;73.30;;;;;;5000376;28;20041;-88
2021/11/30 00:49:58;;;;;;;10.00;9.43;;;4.20;73.30;;;;;;5016553;28;20025;-88
2021/11/30 00:52:24;;;;;;;9.97;9.37;;;4.20;73.30;;;;;;5034017;28;20033;-88
2021/11/30 00:54:51;;;;;;;10.13;9.50;;;4.20;73.30;;;;;;5034724;28;20053;-87
2021/11/30 00:57:18;;;;;;;9.27;8.77;;;4.20;73.30;;;;;;5016260;28;20470;-88
2021/11/30 00:59:44;;;;;;;8.60;8.00;;;4.10;73.30;;;;;;4983794;28;20053;-89
2021/11/30 01:02:10;;;;;;;8.40;8.00;;;4.20;73.40;;;;;;5033557;28;20041;-89
2021/11/30 01:04:36;;;;;;;9.20;8.60;;;4.20;73.40;;;;;;5016652;28;20036;-89
2021/11/30 01:07:03;;;;;;;9.43;8.90;;;4.20;73.30;;;;;;5016760;28;20038;-89
2021/11/30 01:09:29;;;;;;;8.70;8.20;;;4.20;73.30;;;;;;4999898;28;20033;-88
2021/11/30 01:11:55;;;;;;;9.83;9.23;;;4.20;73.30;;;;;;5033788;28;20048;-89
2021/11/30 01:14:21;;;;;;;8.57;8.17;;;4.20;73.40;;;;;;5015702;28;20051;-88
2021/11/30 01:16:47;;;;;;;8.97;8.47;;;4.20;73.40;;;;;;5015992;28;20053;-87
2021/11/30 01:19:14;;;;;;;8.73;8.10;;;4.20;73.40;;;;;;5010412;28;20037;-88
2021/11/30 01:21:40;;;;;;;8.67;8.27;;;4.20;73.40;;;;;;5015208;28;20060;-88
2021/11/30 01:24:06;;;;;;;9.10;8.40;;;4.20;73.50;;;;;;5016109;28;20497;-88
2021/11/30 01:26:33;;;;;;;9.20;8.70;;;4.10;73.40;;;;;;5000189;28;20041;-88
2021/11/30 01:28:59;;;;;;;8.13;7.70;;;4.20;73.50;;;;;;5016130;28;20277;-88
2021/11/30 01:31:25;;;;;;;7.70;7.30;;;4.10;73.50;;;;;;5015163;28;20025;-87
2021/11/30 01:33:51;;;;;;;9.43;8.90;;;4.10;73.60;;;;;;5033968;28;20033;-88
2021/11/30 01:36:18;;;;;;;8.10;7.70;;;4.10;73.60;;;;;;5032478;28;20045;-88
2021/11/30 01:38:44;;;;;;;7.93;7.53;;;4.10;73.60;;;;;;4999602;28;20025;-88
2021/11/30 01:41:12;;;;;;;7.93;7.43;;;4.10;73.60;;;;;;5015818;28;20037;-89
2021/11/30 01:43:44;;;;;;;8.97;8.47;;;4.10;73.60;;;;;;5015962;28;20045;-87
2021/11/30 01:46:15;;;;;;;11.90;8.00;;;4.10;73.60;;;;;;5000047;28;20490;-88
2021/11/30 01:51:26;;;;;;;8.97;8.17;;;4.10;73.70;;;;;;5033318;28;20034;-87
2021/11/30 01:53:54;;;;;;;8.90;8.30;;;4.00;73.60;;;;;;4998874;28;20025;-88
2021/11/30 01:56:20;;;;;;;8.10;7.70;;;4.00;73.60;;;;;;4995851;28;20082;-87
2021/11/30 01:58:47;;;;;;;8.87;8.43;;;4.00;73.70;;;;;;5015174;28;20394;-88
2021/11/30 02:01:13;;;;;;;8.07;7.57;;;4.00;73.70;;;;;;5032852;28;20406;-87
2021/11/30 02:03:40;;;;;;;9.50;8.90;;;4.00;73.70;;;;;;5015094;28;20049;-87
2021/11/30 02:06:06;;;;;;;8.30;7.80;;;4.00;73.70;;;;;;4997982;28;20380;-87
2021/11/30 02:08:32;;;;;;;9.67;9.10;;;4.00;73.80;;;;;;5032412;28;20394;-87
2021/11/30 02:10:58;;;;;;;8.77;8.27;;;4.00;73.70;;;;;;5015531;28;20034;-88
2021/11/30 02:13:25;;;;;;;8.17;7.77;;;4.10;73.80;;;;;;5014535;28;20053;-88
2021/11/30 02:15:54;;;;;;;9.47;8.97;;;4.00;73.70;;;;;;4998187;28;20040;-87
2021/11/30 02:18:24;;;;;;;11.03;10.13;;;4.10;73.80;;;;;;5014180;28;20021;-88
2021/11/30 02:21:02;;;;;;;7.67;7.27;;;4.10;73.70;;;;;;5015567;28;20041;-87
2021/11/30 02:23:40;;;;;;;9.17;8.53;;;4.10;73.80;;;;;;5015075;28;20399;-87
2021/11/30 02:26:09;;;;;;;9.00;8.50;;;4.10;73.70;;;;;;5016814;28;20029;-87
2021/11/30 02:28:36;;;;;;;8.47;7.97;;;4.20;73.70;;;;;;4998908;28;20359;-88
2021/11/30 02:31:03;;;;;;;8.63;8.13;;;4.10;73.70;;;;;;5013598;28;20036;-87
2021/11/30 02:33:29;;;;;;;8.67;8.17;;;4.10;73.80;;;;;;4981304;28;20414;-87
2021/11/30 02:35:55;;;;;;;9.27;8.53;;;4.20;73.90;;;;;;5014130;28;20041;-88
2021/11/30 02:38:22;;;;;;;7.97;7.57;;;4.20;73.80;;;;;;5014940;28;20029;-87
2021/11/30 02:40:48;;;;;;;9.03;8.53;;;4.10;73.70;;;;;;5032547;28;20022;-87
2021/11/30 02:43:14;;;;;;;8.07;7.67;;;4.20;73.80;;;;;;5010577;28;20044;-87
2021/11/30 02:45:40;;;;;;;8.53;8.03;;;4.20;73.80;;;;;;5031372;28;20041;-88
2021/11/30 02:48:06;;;;;;;9.67;8.90;;;4.10;73.80;;;;;;5031516;28;20032;-87
2021/11/30 02:50:39;;;;;;;8.37;7.87;;;4.10;73.80;;;;;;5014512;28;20040;-88
2021/11/30 02:53:06;;;;;;;8.17;7.67;;;4.10;73.90;;;;;;5032479;28;20036;-87
2021/11/30 02:55:33;;;;;;;10.23;9.43;;;4.10;74.00;;;;;;5014697;28;20030;-87
2021/11/30 02:57:59;;;;;;;9.90;9.30;;;4.10;74.00;;;;;;5030021;28;20033;-87
2021/11/30 03:00:25;;;;;;;7.97;7.57;;;4.10;74.10;;;;;;4996611;28;20049;-87
2021/11/30 03:02:52;;;;;;;9.03;8.50;;;4.00;74.00;;;;;;5005164;28;20056;-87
2021/11/30 03:05:18;;;;;;;8.43;7.93;;;4.10;74.00;;;;;;5016790;28;20049;-87
2021/11/30 03:07:44;;;;;;;8.93;8.43;;;4.10;74.00;;;;;;5009856;28;20038;-87
2021/11/30 03:10:13;;;;;;;8.20;7.70;;;4.10;74.10;;;;;;5013030;28;20043;-87
2021/11/30 03:12:39;;;;;;;8.53;8.10;;;4.10;74.10;;;;;;5011460;28;20038;-87
2021/11/30 03:15:07;;;;;;;9.00;8.30;;;4.10;74.00;;;;;;4995261;28;20026;-88
2021/11/30 03:17:33;;;;;;;9.70;9.20;;;4.10;74.00;;;;;;4993086;28;20462;-87
2021/11/30 03:19:59;;;;;;;8.73;8.27;;;4.10;74.00;;;;;;4974871;28;20048;-87
2021/11/30 03:22:25;;;;;;;8.13;7.67;;;4.20;74.00;;;;;;5029751;28;20053;-87
2021/11/30 03:24:51;;;;;;;8.53;8.03;;;4.10;74.00;;;;;;4994280;28;20041;-87
2021/11/30 03:27:17;;;;;;;10.50;8.13;;;4.20;74.00;;;;;;4996046;28;20044;-88
2021/11/30 03:29:43;;;;;;;9.40;8.80;;;4.20;74.10;;;;;;5027356;28;20029;-89
2021/11/30 03:32:13;;;;;;;8.67;8.17;;;4.20;74.00;;;;;;5010823;28;20045;-89
2021/11/30 03:34:39;;;;;;;8.57;8.00;;;4.20;74.00;;;;;;5009747;28;20021;-89
2021/11/30 03:37:09;;;;;;;9.63;9.07;;;4.20;73.90;;;;;;5004354;28;20049;-88
2021/11/30 03:39:35;;;;;;;8.37;7.90;;;4.20;74.00;;;;;;5030144;28;20037;-89
2021/11/30 03:42:02;;;;;;;8.90;8.37;;;4.20;74.00;;;;;;5013416;28;20044;-89
2021/11/30 03:44:28;;;;;;;8.73;8.07;;;4.20;74.00;;;;;;5030066;28;20486;-88
2021/11/30 03:46:54;;;;;;;7.47;7.17;;;4.20;74.10;;;;;;5012600;28;20033;-88
2021/11/30 03:49:20;;;;;;;8.57;7.97;;;4.20;74.10;;;;;;4997031;28;20033;-89
2021/11/30 03:51:47;;;;;;;7.90;7.40;;;4.20;74.10;;;;;;4997122;28;20033;-89
2021/11/30 03:54:13;;;;;;;7.23;6.80;;;4.20;74.10;;;;;;4980810;28;20033;-88
2021/11/30 03:56:39;;;;;;;8.70;8.00;;;4.20;74.10;;;;;;4996874;28;20410;-89
2021/11/30 03:59:05;;;;;;;8.80;8.40;;;4.20;74.10;;;;;;4997712;28;20405;-89
2021/11/30 04:01:31;;;;;;;7.80;7.40;;;4.20;74.20;;;;;;5011286;28;20461;-88
2021/11/30 04:03:58;;;;;;;8.53;8.03;;;4.20;74.20;;;;;;4996837;28;20041;-89
2021/11/30 04:06:24;;;;;;;8.60;8.10;;;4.30;74.20;;;;;;4997010;28;20044;-87
2021/11/30 04:08:50;;;;;;;8.97;8.47;;;4.30;74.20;;;;;;5013442;28;20056;-88
2021/11/30 04:11:17;;;;;;;8.47;8.03;;;4.20;74.10;;;;;;5013431;28;20032;-87
2021/11/30 04:13:43;;;;;;;7.87;7.47;;;4.30;74.20;;;;;;4980680;28;20038;-90
2021/11/30 04:16:09;;;;;;;8.43;8.03;;;4.30;74.10;;;;;;5027247;28;20057;-90
2021/11/30 04:18:37;;;;;;;7.47;7.17;;;4.30;74.10;;;;;;5006045;28;20487;-91
2021/11/30 04:21:03;;;;;;;8.97;8.40;;;4.40;74.10;;;;;;5013462;28;20204;-90
2021/11/30 04:23:29;;;;;;;8.27;7.77;;;4.40;74.10;;;;;;5013393;28;20486;-89
2021/11/30 04:25:55;;;;;;;9.60;8.80;;;4.40;74.00;;;;;;5031102;28;20025;-89
2021/11/30 04:28:21;;;;;;;7.53;7.13;;;4.40;74.10;;;;;;5013741;28;20056;-89
2021/11/30 04:30:48;;;;;;;8.37;7.97;;;4.40;74.00;;;;;;4996701;28;20025;-90
2021/11/30 04:33:14;;;;;;;9.10;8.27;;;4.50;74.10;;;;;;5012354;28;20479;-89
2021/11/30 04:35:40;;;;;;;9.03;8.53;;;4.50;74.10;;;;;;4996938;28;20121;-88
2021/11/30 04:38:06;;;;;;;8.33;7.93;;;4.50;74.10;;;;;;5013309;28;20037;-88
2021/11/30 04:40:32;;;;;;;8.80;8.40;;;4.50;74.10;;;;;;5030839;28;20036;-88
2021/11/30 04:42:58;;;;;;;7.93;7.53;;;4.60;74.10;;;;;;5011662;28;20045;-88
2021/11/30 04:45:28;;;;;;;9.90;8.97;;;4.60;74.00;;;;;;5029615;28;20041;-88
2021/11/30 04:47:56;;;;;;;8.17;7.67;;;4.60;74.00;;;;;;5030088;28;20022;-89
2021/11/30 04:50:25;;;;;;;9.53;8.60;;;4.60;74.00;;;;;;5030713;28;20392;-88
2021/11/30 04:52:53;;;;;;;8.43;8.03;;;4.60;74.00;;;;;;4996685;28;20033;-88
2021/11/30 04:55:25;;;;;;;9.77;9.17;;;4.70;74.10;;;;;;4999381;28;20262;-88
2021/11/30 04:57:57;;;;;;;9.23;8.73;;;4.60;74.00;;;;;;5016743;28;20030;-89
2021/11/30 05:00:23;;;;;;;8.63;8.23;;;4.60;74.00;;;;;;5033784;28;20048;-89
2021/11/30 05:02:49;;;;;;;8.67;8.17;;;4.70;74.10;;;;;;4999991;28;20432;-88
2021/11/30 05:05:15;;;;;;;10.07;7.63;;;4.70;74.10;;;;;;5015998;28;20029;-89
2021/11/30 05:07:42;;;;;;;7.40;7.07;;;4.70;74.00;;;;;;5000145;28;20025;-89
2021/11/30 05:10:09;;;;;;;7.30;6.90;;;4.70;74.00;;;;;;5016668;28;20033;-89
2021/11/30 05:12:35;;;;;;;8.10;7.70;;;4.80;74.90;;;;;;5015443;28;20038;-89
2021/11/30 05:15:02;;;;;;;8.03;7.63;;;4.80;74.10;;;;;;5016676;28;20029;-89
2021/11/30 05:17:29;;;;;;;7.57;7.17;;;4.70;74.10;;;;;;5010971;28;20049;-90
2021/11/30 05:19:55;;;;;;;7.23;6.93;;;4.80;74.10;;;;;;5016622;28;20097;-90
2021/11/30 05:22:21;;;;;;;7.43;7.03;;;4.80;74.20;;;;;;5000733;28;20038;-90
2021/11/30 05:24:47;;;;;;;7.43;7.07;;;4.80;74.20;;;;;;5033792;28;20045;-89
2021/11/30 05:27:14;;;;;;;8.67;8.13;;;4.80;74.20;;;;;;4999644;28;20029;-89
2021/11/30 05:29:40;;;;;;;7.50;7.20;;;4.80;74.20;;;;;;5016348;28;20033;-91
2021/11/30 05:32:06;;;;;;;8.40;8.00;;;4.80;74.20;;;;;;5015944;28;20026;-90
2021/11/30 05:34:32;;;;;;;8.50;8.00;;;4.80;74.20;;;;;;5007895;28;20042;-90
2021/11/30 05:36:58;;;;;;;7.90;7.50;;;4.90;74.30;;;;;;5003741;28;20048;-89
2021/11/30 05:39:25;;;;;;;8.53;8.13;;;4.90;74.30;;;;;;5015381;28;20041;-90
2021/11/30 05:41:51;;;;;;;8.07;7.67;;;4.90;74.20;;;;;;5014796;28;20042;-90
2021/11/30 05:44:17;;;;;;;8.47;7.97;;;4.90;74.20;;;;;;5015917;28;20037;-89
2021/11/30 05:46:46;;;;;;;7.93;7.53;;;4.90;74.20;;;;;;5014681;28;20478;-89
2021/11/30 05:49:12;;;;;;;7.93;7.53;;;5.00;74.30;;;;;;5016570;28;20032;-85
2021/11/30 05:51:38;;;;;;;8.20;7.70;;;5.00;74.30;;;;;;5015615;28;20044;-90
2021/11/30 05:54:04;;;;;;;8.23;7.83;;;5.00;74.30;;;;;;5032643;28;20029;-90
2021/11/30 05:56:30;;;;;;;7.90;7.50;;;5.00;74.20;;;;;;5033071;28;20045;-89
2021/11/30 05:58:59;;;;;;;9.03;8.43;;;5.00;74.30;;;;;;4998909;28;20485;-90
2021/11/30 06:01:28;;;;;;;7.73;7.30;;;5.00;74.30;;;;;;4996311;28;20042;-89
2021/11/30 06:04:00;;;;;;;8.10;7.70;;;5.10;74.30;;;;;;5011982;28;20048;-85
2021/11/30 06:06:31;;;;;;;7.87;7.43;;;5.10;74.30;;;;;;4997773;28;20387;-86
2021/11/30 06:08:58;;;;;;;7.95;7.55;;;5.10;74.30;;;;;;4997570;28;20482;-84
2021/11/30 06:11:24;;;;;;;7.50;7.10;;;5.10;74.30;;;;;;4998405;28;20026;-89
2021/11/30 06:13:50;;;;;;;7.03;6.73;;;5.10;74.30;;;;;;5014315;28;20363;-88
2021/11/30 06:16:17;;;;;;;7.80;7.40;;;5.20;74.30;;;;;;4998320;28;20038;-87
2021/11/30 06:18:43;;;;;;;7.60;7.20;;;5.20;74.40;;;;;;4981876;28;20044;-86
2021/11/30 06:21:11;;;;;;;7.27;6.90;;;5.20;74.40;;;;;;4997623;28;20036;-87
2021/11/30 06:23:39;;;;;;;7.27;6.87;;;5.20;74.40;;;;;;5014408;28;20041;-86
2021/11/30 06:26:09;;;;;;;8.20;7.80;;;5.20;74.40;;;;;;4998710;28;20029;-86
2021/11/30 06:28:35;;;;;;;8.63;8.03;;;5.20;74.40;;;;;;5015601;28;20483;-86
2021/11/30 06:31:02;;;;;;;7.47;7.10;;;5.20;74.40;;;;;;5032070;28;20037;-86
2021/11/30 06:33:28;;;;;;;7.30;7.00;;;5.30;74.40;;;;;;4998024;28;20033;-87
2021/11/30 06:35:54;;;;;;;7.40;6.97;;;5.30;74.40;;;;;;5032240;28;20041;-87
2021/11/30 06:38:20;;;;;;;7.47;7.17;;;5.30;74.40;;;;;;4998038;28;20044;-88
2021/11/30 06:40:46;;;;;;;6.77;6.47;;;5.30;74.40;;;;;;4997621;28;20040;-87
2021/11/30 06:43:13;;;;;;;7.97;7.57;;;5.40;74.50;;;;;;5014844;28;20032;-89
2021/11/30 06:45:39;;;;;;;7.93;7.53;;;5.40;74.50;;;;;;4997414;28;20486;-87
2021/11/30 06:48:06;;;;;;;8.47;7.97;;;5.40;74.50;;;;;;5014075;28;20032;-86
2021/11/30 06:50:32;;;;;;;8.07;7.57;;;5.40;74.50;;;;;;5014460;28;20045;-88
2021/11/30 06:52:58;;;;;;;7.00;6.70;;;5.40;74.40;;;;;;5014500;28;20490;-84
2021/11/30 06:55:24;;;;;;;7.07;6.77;;;5.40;74.40;;;;;;5031934;28;20029;-82
2021/11/30 06:57:50;;;;;;;6.90;6.60;;;5.50;74.60;;;;;;5030814;28;20029;-85
2021/11/30 07:00:22;;;;;;;7.33;6.93;;;5.70;74.60;;;;;;5013045;28;20486;-80
2021/11/30 07:02:50;;;;;;;7.40;7.07;;;5.90;74.50;;;;;;5030293;28;20032;-82
2021/11/30 07:10:43;;;;;;;7.43;7.03;;;6.60;74.10;;;;;;5019282;28;20033;-80
2021/11/30 07:15:42;;;;;;;7.53;7.20;;;7.00;73.80;;;;;;4995758;28;20029;-80
2021/11/30 07:18:12;;;;;;;7.07;6.77;;;7.20;73.80;;;;;;5012385;28;20037;-81
2021/11/30 07:20:39;;;;;;;8.00;7.57;;;7.30;73.80;;;;;;4992355;28;20029;-80
2021/11/30 07:23:05;;;;;;;7.10;6.80;;;7.50;73.70;;;;;;5004934;28;20041;-80
2021/11/30 07:25:31;;;;;;;8.40;8.00;;;7.60;73.70;;;;;;4996223;28;20478;-82
2021/11/30 07:27:57;;;;;;;7.97;7.57;;;7.60;73.80;;;;;;5014201;28;20033;-80
2021/11/30 07:30:23;;;;;;;7.77;7.37;;;7.60;73.80;;;;;;5012247;28;20041;-80
2021/11/30 07:32:50;;;;;;;7.22;6.93;;;7.60;74.10;;;;;;5030590;28;20040;-79
2021/11/30 07:35:18;;;;;;;8.30;7.90;;;7.70;74.20;;;;;;5029989;28;20040;-79
2021/11/30 07:37:44;;;;;;;8.05;7.65;;;7.60;74.20;;;;;;4995634;28;20038;-80
2021/11/30 07:40:11;;;;;;;8.48;8.07;;;7.60;74.40;;;;;;5013699;28;20040;-81
2021/11/30 07:42:37;;;;;;;7.63;7.22;;;7.60;74.40;;;;;;5009086;28;20029;-81
2021/11/30 07:45:03;;;;;;;8.13;7.72;;;7.60;74.40;;;;;;4993903;28;20048;-83
2021/11/30 07:47:29;;;;;;;8.53;7.93;;;7.60;74.50;;;;;;4996006;28;20029;-81
2021/11/30 07:49:55;;;;;;;8.52;8.02;;;7.50;74.70;;;;;;5012622;28;20040;-82
2021/11/30 07:52:22;;;;;;;7.97;7.57;;;7.50;74.70;;;;;;5011595;28;20029;-85
2021/11/30 07:54:50;;;;;;;8.15;7.75;;;7.50;74.80;;;;;;4995653;28;20050;-85
2021/11/30 07:57:16;;;;;;;8.30;7.90;;;7.50;74.80;;;;;;4990430;28;20026;-87
2021/11/30 07:59:42;;;;;;;8.43;8.02;;;7.40;74.80;;;;;;5005019;28;20025;-88
2021/11/30 08:02:08;;;;;;;9.70;9.10;;;7.30;74.90;;;;;;4993320;28;20394;-88
2021/11/30 08:04:34;;;;;;;8.80;8.30;;;7.20;75.10;;;;;;5012063;28;20045;-87
2021/11/30 08:07:01;;;;;;;8.70;8.20;;;7.00;75.20;;;;;;5013044;28;20037;-88
2021/11/30 08:09:28;;;;;;;8.60;8.20;;;6.90;75.40;;;;;;5011264;28;20034;-88
2021/11/30 08:11:55;;;;;;;8.70;7.93;;;6.80;75.50;;;;;;4996809;28;20021;-88
2021/11/30 08:14:21;;;;;;;8.13;7.57;;;6.80;75.60;;;;;;4994678;28;20025;-88
2021/11/30 08:16:47;;;;;;;7.23;6.93;;;6.70;75.60;;;;;;5028958;28;20402;-87
2021/11/30 08:19:13;;;;;;;8.60;8.10;;;6.80;75.60;;;;;;5013474;28;20029;-87
2021/11/30 08:21:40;;;;;;;7.70;7.30;;;6.70;75.60;;;;;;5010231;28;20029;-87
2021/11/30 08:24:06;;;;;;;7.60;7.20;;;6.70;75.50;;;;;;4984572;28;20049;-87
2021/11/30 08:26:32;;;;;;;7.50;7.10;;;6.70;75.50;;;;;;4995107;28;20037;-88
2021/11/30 08:28:58;;;;;;;7.90;7.50;;;6.70;75.50;;;;;;5011500;28;20032;-87
2021/11/30 08:31:25;;;;;;;7.27;6.97;;;6.80;75.50;;;;;;5016165;28;20038;-88
2021/11/30 08:33:51;;;;;;;7.63;7.22;;;6.80;75.50;;;;;;5017580;28;20025;-88
2021/11/30 08:36:17;;;;;;;6.80;6.50;;;6.80;75.40;;;;;;5032758;28;20044;-87
2021/11/30 08:38:44;;;;;;;7.63;7.23;;;6.90;75.40;;;;;;5015771;28;20037;-87
2021/11/30 08:41:10;;;;;;;7.20;6.90;;;6.90;75.40;;;;;;4983549;28;20045;-87
2021/11/30 08:43:36;;;;;;;7.83;7.43;;;6.90;75.30;;;;;;5015229;28;20038;-87
2021/11/30 08:46:02;;;;;;;7.43;7.03;;;6.90;75.20;;;;;;5035383;28;20375;-88
2021/11/30 08:48:28;;;;;;;7.80;7.40;;;7.00;75.20;;;;;;4997468;28;20478;-87
2021/11/30 08:50:55;;;;;;;7.63;7.27;;;7.00;75.10;;;;;;5015739;28;20029;-87
2021/11/30 08:53:22;;;;;;;6.97;6.67;;;7.10;75.10;;;;;;4998657;28;20474;-87
2021/11/30 08:55:49;;;;;;;7.23;6.93;;;7.10;75.10;;;;;;5032276;28;20036;-87
2021/11/30 08:58:15;;;;;;;8.30;7.67;;;7.10;75.00;;;;;;5018175;28;20032;-88
2021/11/30 09:00:41;;;;;;;7.87;7.37;;;7.10;75.00;;;;;;4985660;28;20034;-87
2021/11/30 09:03:07;;;;;;;7.80;7.40;;;7.20;75.10;;;;;;5027483;28;20029;-87
2021/11/30 09:05:33;;;;;;;8.17;7.70;;;7.20;75.10;;;;;;5015185;28;20041;-87
2021/11/30 09:08:00;;;;;;;6.97;6.67;;;7.20;75.10;;;;;;5014985;28;20021;-88
2021/11/30 09:10:27;;;;;;;7.83;7.43;;;7.20;75.10;;;;;;5034637;28;20026;-88
2021/11/30 09:12:53;;;;;;;7.63;7.33;;;7.30;75.10;;;;;;4983985;28;20045;-86
2021/11/30 09:15:19;;;;;;;7.73;7.33;;;7.30;75.10;;;;;;5031572;28;20036;-86
2021/11/30 09:17:45;;;;;;;7.90;7.30;;;7.40;75.10;;;;;;5012889;28;20385;-84
2021/11/30 09:20:12;;;;;;;8.30;7.90;;;7.40;75.00;;;;;;5007705;28;20478;-81
2021/11/30 09:22:38;;;;;;;9.47;8.87;;;7.50;75.00;;;;;;5026558;28;20504;-82
2021/11/30 09:25:05;;;;;;;8.37;7.97;;;7.60;75.00;;;;;;5012569;28;20048;-83
2021/11/30 09:27:31;;;;;;;7.97;7.55;;;7.70;74.90;;;;;;5013235;28;20390;-83
2021/11/30 09:29:58;;;;;;;9.02;8.43;;;7.80;74.70;;;;;;4997082;28;20042;-83
2021/11/30 09:32:29;;;;;;;8.60;8.17;;;7.90;74.60;;;;;;4995583;28;20029;-82
2021/11/30 09:34:57;;;;;;;8.57;8.15;;;8.00;74.50;;;;;;4997799;28;20475;-86
2021/11/30 09:37:24;;;;;;;7.65;7.25;;;8.10;74.50;;;;;;5015890;28;20049;-87
2021/11/30 09:39:50;;;;;;;8.43;8.02;;;8.10;74.40;;;;;;5013543;28;20033;-86
2021/11/30 09:42:17;;;;;;;8.80;8.32;;;8.10;74.40;;;;;;5008567;28;20029;-81
2021/11/30 09:44:47;;;;;;;9.07;8.57;;;8.20;74.40;;;;;;4992643;28;20068;-86
2021/11/30 09:47:14;;;;;;;9.40;8.85;;;8.10;74.50;;;;;;5029734;28;20470;-84
2021/11/30 09:49:40;;;;;;;8.70;8.30;;;8.10;74.50;;;;;;5026528;28;20033;-88
2021/11/30 09:52:06;;;;;;;8.52;8.13;;;8.10;74.60;;;;;;5032493;28;20029;-86
2021/11/30 09:54:32;;;;;;;8.63;8.23;;;8.00;74.70;;;;;;4997710;28;20036;-87
2021/11/30 09:56:58;;;;;;;8.13;7.73;;;8.00;74.80;;;;;;4998763;28;20470;-86
2021/11/30 09:59:25;;;;;;;8.40;8.00;;;8.00;74.90;;;;;;5014341;28;20135;-88
2021/11/30 10:01:51;;;;;;;8.83;8.43;;;8.00;74.90;;;;;;4997259;28;20029;-88
2021/11/30 10:04:17;;;;;;;8.70;8.30;;;8.00;74.90;;;;;;5033795;28;20048;-87
2021/11/30 10:06:43;;;;;;;9.20;8.80;;;8.00;74.80;;;;;;5014300;28;20390;-85
2021/11/30 10:09:22;;;;;;;8.70;8.30;;;8.10;74.80;;;;;;5012243;28;20025;-84
2021/11/30 10:12:01;;;;;;;9.70;9.00;;;8.10;74.80;;;;;;5029480;28;20040;-83
2021/11/30 10:14:34;;;;;;;9.07;8.55;;;8.10;74.70;;;;;;4996982;28;20390;-84
2021/11/30 10:17:23;;;;;;;8.27;7.88;;;8.10;74.70;;;;;;5012152;28;20030;-80
2021/11/30 10:19:59;;;;;;;8.20;7.80;;;8.10;74.70;;;;;;5013337;28;20394;-84
2021/11/30 10:22:42;;;;;;;8.43;8.02;;;8.10;74.70;;;;;;5027955;28;20045;-81
2021/11/30 10:25:24;;;;;;;8.23;7.83;;;8.10;74.80;;;;;;5010665;28;20038;-81
2021/11/30 10:27:59;;;;;;;8.30;7.90;;;8.10;74.90;;;;;;5029222;28;20034;-81
2021/11/30 10:30:30;;;;;;;8.70;8.20;;;8.10;74.90;;;;;;5010594;28;20482;-82
2021/11/30 10:32:57;;;;;;;;;;;8.10;74.80;;;;;;4995435;28;20031;-82
2021/11/30 10:35:25;;;;;;;8.70;8.30;;;8.10;74.80;;;;;;5011177;28;19913;-80
2021/11/30 10:37:51;;;;;;;8.40;8.00;;;8.10;74.80;;;;;;5030237;28;20034;-88
2021/11/30 10:40:22;;;;;;;8.00;7.60;;;8.10;74.80;;;;;;4998872;28;20037;-86
2021/11/30 10:42:52;;;;;;;8.53;8.13;;;8.10;74.80;;;;;;4995444;28;20033;-86
2021/11/30 10:45:25;;;;;;;7.87;7.50;;;8.10;74.80;;;;;;5011047;28;20038;-86
2021/11/30 10:47:51;;;;;;;7.50;7.20;;;8.20;74.80;;;;;;5014044;28;20033;-86
2021/11/30 10:50:22;;;;;;;8.15;7.75;;;8.20;74.70;;;;;;5012122;28;20490;-90
2021/11/30 10:52:50;;;;;;;8.35;7.95;;;8.30;74.70;;;;;;5006947;28;20021;-88
2021/11/30 10:55:17;;;;;;;9.80;9.02;;;8.40;74.60;;;;;;4992843;28;20049;-88
2021/11/30 10:57:48;;;;;;;7.70;7.30;;;8.50;74.50;;;;;;4995261;28;20390;-85
2021/11/30 11:00:23;;;;;;;8.48;8.07;;;8.60;74.50;;;;;;5011804;28;20033;-91
2021/11/30 11:02:54;;;;;;;8.65;8.25;;;8.70;74.40;;;;;;4997396;28;20048;-89
2021/11/30 11:05:26;;;;;;;;;;;8.80;74.30;;;;;;5014162;28;20046;-89
2021/11/30 11:08:13;;;;;;;8.75;8.35;;;8.80;74.20;;;;;;4983047;28;19909;-87
2021/11/30 11:10:42;;;;;;;8.93;8.50;;;8.90;74.10;;;;;;5009337;28;20042;-81
2021/11/30 11:13:28;;;;;;;8.50;8.10;;;8.90;74.10;;;;;;5014728;28;20060;-83
2021/11/30 11:15:56;;;;;;;8.40;8.00;;;9.00;74.00;;;;;;5013652;28;20033;-82
2021/11/30 11:18:23;;;;;;;9.45;8.95;;;9.00;74.00;;;;;;5030782;28;20022;-82
2021/11/30 11:21:13;;;;;;;9.48;8.98;;;9.10;74.00;;;;;;5030314;28;20029;-82
2021/11/30 11:23:43;;;;;;;8.73;8.32;;;9.20;73.90;;;;;;5004426;28;20486;-81
2021/11/30 11:26:25;;;;;;;9.20;8.70;;;9.20;73.90;;;;;;5014129;28;20041;-82
2021/11/30 11:28:52;;;;;;;8.50;8.10;;;9.20;73.90;;;;;;5013156;28;20033;-82
2021/11/30 11:31:18;;;;;;;9.63;9.13;;;9.30;73.90;;;;;;5011943;28;20410;-83
2021/11/30 11:33:44;;;;;;;9.00;8.60;;;9.30;73.90;;;;;;5010624;28;20029;-81
2021/11/30 11:36:10;;;;;;;8.93;8.52;;;9.40;73.80;;;;;;5013046;28;20041;-81
2021/11/30 11:38:37;;;;;;;9.10;8.70;;;9.50;73.80;;;;;;5012016;28;20045;-82
2021/11/30 11:41:03;;;;;;;9.35;8.85;;;9.60;73.80;;;;;;4981651;28;20037;-79
2021/11/30 11:43:29;;;;;;;9.05;8.65;;;9.60;73.60;;;;;;5029523;28;20029;-80
2021/11/30 11:45:56;;;;;;;9.27;8.88;;;9.70;73.60;;;;;;4995206;28;20041;-81
2021/11/30 11:48:26;;;;;;;10.55;10.05;;;9.70;73.70;;;;;;5013361;28;20196;-88
2021/11/30 11:51:00;;;;;;;8.93;8.52;;;9.70;73.70;;;;;;5012695;28;20029;-87
2021/11/30 11:53:28;;;;;;;10.40;9.90;;;9.70;73.80;;;;;;5010509;28;20014;-84
2021/11/30 11:56:27;;;;;;;10.90;10.30;;;9.80;73.80;;;;;;5012381;28;20045;-86
2021/11/30 11:59:18;;;;;;;11.10;10.60;;;9.80;73.70;;;;;;4998419;28;20029;-83
2021/11/30 12:01:50;;;;;;;11.40;10.80;;;9.80;73.70;;;;;;5028220;28;20029;-85
2021/11/30 12:04:17;;;;;;;12.45;10.85;;;9.80;74.40;;;;;;5009487;28;20391;-86
2021/11/30 12:07:02;;;;;;;10.52;10.02;;;9.80;73.70;;;;;;5016375;28;20053;-85
2021/11/30 12:09:29;;;;;;;11.00;10.50;;;9.80;73.70;;;;;;5000595;28;20041;-85
2021/11/30 12:12:22;;;;;;;11.40;10.60;;;9.90;73.70;;;;;;5034561;28;20521;-84
2021/11/30 12:14:50;;;;;;;11.80;11.30;;;9.90;73.70;;;;;;5016930;28;20063;-89
2021/11/30 12:17:25;;;;;;;11.25;10.65;;;9.90;73.60;;;;;;5016134;28;20040;-86
2021/11/30 12:19:57;;;;;;;11.02;10.52;;;9.90;73.70;;;;;;5016387;28;20513;-88
2021/11/30 12:22:42;;;;;;;10.90;10.40;;;9.90;73.60;;;;;;5034876;28;20041;-85
2021/11/30 12:25:27;;;;;;;11.00;10.50;;;10.00;73.70;;;;;;5016389;28;20037;-88
2021/11/30 12:27:54;;;;;;;10.88;10.38;;;10.00;73.60;;;;;;5033379;28;20038;-87
2021/11/30 12:30:48;;;;;;;10.63;10.13;;;10.00;73.50;;;;;;5015118;28;20044;-89
2021/11/30 12:33:22;;;;;;;10.63;10.13;;;10.00;73.70;;;;;;4999189;28;20478;-91
2021/11/30 12:35:53;;;;;;;9.90;9.40;;;10.00;73.60;;;;;;5012869;28;20367;-88
2021/11/30 12:38:21;;;;;;;10.27;9.77;;;10.00;73.60;;;;;;5016812;28;20033;-87
2021/11/30 12:40:49;;;;;;;34.70;10.82;;;10.10;73.60;;;;;;4998119;28;20046;-83
2021/11/30 12:43:22;;;;;;;9.98;9.48;;;10.00;73.70;;;;;;5024533;28;20041;-82
2021/11/30 12:46:02;;;;;;;9.73;9.23;;;10.00;73.70;;;;;;5024289;28;20049;-88
2021/11/30 12:48:32;;;;;;;10.23;9.73;;;10.00;73.80;;;;;;5000437;28;20040;-81
2021/11/30 12:51:24;;;;;;;9.85;9.35;;;10.00;73.80;;;;;;5033855;28;20052;-85
2021/11/30 12:53:50;;;;;;;10.15;9.65;;;10.10;73.80;;;;;;5026689;28;20052;-83
2021/11/30 12:56:54;;;;;;;9.77;9.27;;;10.00;73.80;;;;;;5016194;28;20044;-86
2021/11/30 12:59:41;;;;;;;18.25;10.48;;;10.00;73.90;;;;;;5015889;28;20022;-87
2021/11/30 13:02:15;;;;;;;9.80;9.38;;;10.10;74.00;;;;;;5027418;28;20037;-86
2021/11/30 13:04:41;;;;;;;9.68;9.18;;;10.00;73.90;;;;;;5033635;28;20367;-87
2021/11/30 13:07:09;;;;;;;9.70;9.20;;;10.00;73.90;;;;;;5034133;28;20029;-86
2021/11/30 13:09:45;;;;;;;10.25;9.65;;;10.00;73.90;;;;;;5033539;28;20364;-86
2021/11/30 13:12:20;;;;;;;9.57;9.07;;;10.10;74.00;;;;;;4994927;28;20034;-87